createdAt,value
2018-09-09T00:02:04.305Z,13.70
2018-09-09T00:04:33.647Z,13.60
2018-09-09T00:07:02.829Z,13.60
2018-09-09T00:09:37.675Z,13.60
2018-09-09T00:12:06.863Z,13.60
2018-09-09T00:14:36.145Z,13.60
2018-09-09T00:17:05.354Z,13.60
2018-09-09T00:19:34.568Z,13.50
2018-09-09T00:22:03.780Z,13.50
2018-09-09T00:24:33.018Z,13.50
2018-09-09T00:27:02.290Z,13.50
2018-09-09T00:29:31.572Z,13.50
2018-09-09T00:32:00.732Z,13.50
2018-09-09T00:34:29.944Z,13.50
2018-09-09T00:36:59.143Z,13.50
2018-09-09T00:39:28.360Z,13.50
2018-09-09T00:41:57.574Z,13.40
2018-09-09T00:44:26.806Z,13.50
2018-09-09T00:46:56.472Z,13.50
2018-09-09T00:49:30.952Z,13.50
2018-09-09T00:52:05.568Z,13.50
2018-09-09T00:54:34.823Z,13.50
2018-09-09T00:57:04.135Z,13.40
2018-09-09T00:59:33.520Z,13.40
2018-09-09T01:02:02.725Z,13.40
2018-09-09T01:04:31.929Z,13.50
2018-09-09T01:07:01.363Z,13.50
2018-09-09T01:09:33.424Z,13.50
2018-09-09T01:12:03.993Z,13.50
2018-09-09T01:14:33.968Z,13.50
2018-09-09T01:17:03.152Z,13.60
2018-09-09T01:19:32.415Z,13.60
2018-09-09T01:22:01.763Z,13.60
2018-09-09T01:24:30.896Z,13.60
2018-09-09T01:27:00.441Z,13.70
2018-09-09T01:29:29.709Z,13.60
2018-09-09T01:31:58.897Z,13.60
2018-09-09T01:34:28.238Z,13.70
2018-09-09T01:36:57.446Z,13.70
2018-09-09T01:39:26.630Z,13.70
2018-09-09T01:41:55.826Z,13.70
2018-09-09T01:44:25.060Z,13.70
2018-09-09T01:46:54.360Z,13.70
2018-09-09T01:49:23.841Z,13.70
2018-09-09T01:51:53.040Z,13.70
2018-09-09T01:54:22.247Z,13.70
2018-09-09T01:56:52.359Z,13.70
2018-09-09T01:59:22.579Z,13.80
2018-09-09T02:01:51.780Z,13.70
2018-09-09T02:04:21.063Z,13.70
2018-09-09T02:06:50.224Z,13.70
2018-09-09T02:09:19.572Z,13.70
2018-09-09T02:11:48.888Z,13.80
2018-09-09T02:14:17.980Z,13.80
2018-09-09T02:16:47.207Z,13.80
2018-09-09T02:19:16.571Z,13.80
2018-09-09T02:21:45.780Z,13.80
2018-09-09T02:24:14.872Z,13.90
2018-09-09T02:26:44.079Z,13.90
2018-09-09T02:29:13.320Z,13.90
2018-09-09T02:31:42.722Z,13.90
2018-09-09T02:34:11.825Z,13.90
2018-09-09T02:36:40.937Z,14.00
2018-09-09T02:39:11.116Z,14.00
2018-09-09T02:41:40.805Z,14.10
2018-09-09T02:44:10.319Z,14.10
2018-09-09T02:46:39.700Z,14.10
2018-09-09T02:49:08.908Z,14.10
2018-09-09T02:51:38.137Z,14.10
2018-09-09T02:54:07.412Z,14.20
2018-09-09T02:56:36.600Z,14.20
2018-09-09T02:59:06.313Z,14.30
2018-09-09T03:01:35.476Z,14.30
2018-09-09T03:04:04.599Z,14.30
2018-09-09T03:06:34.034Z,14.30
2018-09-09T03:09:03.347Z,14.30
2018-09-09T03:11:32.615Z,14.40
2018-09-09T03:14:01.851Z,14.40
2018-09-09T03:16:31.007Z,14.30
2018-09-09T03:19:00.277Z,14.20
2018-09-09T03:21:29.945Z,14.20
2018-09-09T03:23:59.352Z,14.20
2018-09-09T03:26:28.633Z,14.20
2018-09-09T03:28:57.935Z,14.10
2018-09-09T03:31:27.133Z,14.10
2018-09-09T03:33:56.297Z,14.00
2018-09-09T03:36:25.518Z,13.90
2018-09-09T03:38:54.808Z,13.90
2018-09-09T03:41:23.988Z,13.90
2018-09-09T03:43:53.951Z,13.80
2018-09-09T03:46:23.141Z,13.80
2018-09-09T03:48:52.339Z,13.80
2018-09-09T03:51:21.671Z,13.80
2018-09-09T03:53:50.834Z,13.80
2018-09-09T03:56:20.019Z,13.80
2018-09-09T03:58:49.224Z,13.90
2018-09-09T04:01:18.464Z,13.90
2018-09-09T04:03:48.231Z,13.90
2018-09-09T04:06:17.433Z,14.00
2018-09-09T04:08:46.780Z,14.00
2018-09-09T04:11:16.161Z,14.00
2018-09-09T04:13:45.567Z,14.00
2018-09-09T04:16:14.754Z,14.10
2018-09-09T04:18:44.169Z,14.10
2018-09-09T04:21:13.368Z,14.10
2018-09-09T04:23:42.693Z,14.10
2018-09-09T04:26:11.937Z,14.10
2018-09-09T04:28:41.062Z,14.10
2018-09-09T04:31:10.548Z,14.10
2018-09-09T04:33:39.900Z,14.10
2018-09-09T04:36:09.200Z,14.00
2018-09-09T04:38:38.435Z,14.10
2018-09-09T04:41:07.653Z,14.10
2018-09-09T04:43:36.804Z,14.10
2018-09-09T04:46:06.940Z,14.00
2018-09-09T04:48:36.356Z,14.10
2018-09-09T04:51:05.874Z,14.10
2018-09-09T04:53:35.247Z,14.10
2018-09-09T04:56:04.600Z,14.10
2018-09-09T04:58:34.433Z,14.00
2018-09-09T05:01:03.635Z,14.00
2018-09-09T05:03:32.851Z,14.00
2018-09-09T05:06:02.156Z,14.00
2018-09-09T05:08:31.625Z,13.90
2018-09-09T05:11:00.911Z,13.90
2018-09-09T05:13:30.197Z,13.90
2018-09-09T05:15:59.515Z,13.90
2018-09-09T05:18:28.704Z,13.90
2018-09-09T05:20:57.907Z,13.90
2018-09-09T05:23:27.097Z,13.90
2018-09-09T05:25:58.216Z,13.90
2018-09-09T05:28:27.444Z,13.90
2018-09-09T05:30:56.645Z,13.80
2018-09-09T05:33:25.884Z,13.80
2018-09-09T05:35:55.105Z,13.80
2018-09-09T05:38:24.392Z,13.80
2018-09-09T05:40:53.539Z,13.80
2018-09-09T05:43:22.800Z,13.80
2018-09-09T05:45:52.117Z,13.80
2018-09-09T05:48:21.340Z,13.80
2018-09-09T05:50:50.560Z,13.80
2018-09-09T05:53:19.744Z,13.80
2018-09-09T05:55:48.933Z,13.80
2018-09-09T05:58:18.107Z,13.90
2018-09-09T06:00:47.390Z,14.00
2018-09-09T06:03:16.584Z,14.10
2018-09-09T06:05:45.824Z,14.20
2018-09-09T06:08:15.030Z,14.30
2018-09-09T06:10:44.295Z,14.50
2018-09-09T06:13:13.405Z,14.60
2018-09-09T06:15:42.584Z,14.70
2018-09-09T06:18:11.840Z,14.80
2018-09-09T06:20:41.013Z,15.00
2018-09-09T06:23:11.348Z,15.30
2018-09-09T06:25:40.527Z,15.90
2018-09-09T06:28:09.854Z,16.40
2018-09-09T06:30:39.044Z,16.50
2018-09-09T06:33:08.312Z,16.40
2018-09-09T06:35:37.740Z,16.30
2018-09-09T06:38:06.932Z,16.00
2018-09-09T06:40:36.094Z,16.00
2018-09-09T06:43:05.444Z,16.00
2018-09-09T06:45:34.643Z,16.20
2018-09-09T06:48:03.853Z,16.20
2018-09-09T06:50:33.032Z,16.40
2018-09-09T06:53:02.345Z,16.40
2018-09-09T06:55:32.012Z,16.50
2018-09-09T06:58:00.984Z,16.60
2018-09-09T07:00:30.562Z,16.70
2018-09-09T07:02:59.953Z,16.70
2018-09-09T07:05:29.149Z,16.70
2018-09-09T07:07:58.334Z,16.60
2018-09-09T07:10:27.554Z,16.40
2018-09-09T07:12:56.748Z,16.40
2018-09-09T07:15:26.044Z,16.20
2018-09-09T07:17:55.203Z,16.20
2018-09-09T07:20:24.466Z,16.30
2018-09-09T07:22:53.974Z,16.20
2018-09-09T07:25:23.136Z,16.20
2018-09-09T07:27:52.362Z,16.30
2018-09-09T07:30:21.556Z,16.40
2018-09-09T07:32:50.744Z,17.00
2018-09-09T07:35:20.017Z,18.00
2018-09-09T07:37:49.203Z,18.90
2018-09-09T07:40:19.593Z,19.70
2018-09-09T07:42:48.980Z,20.40
2018-09-09T07:45:18.565Z,20.80
2018-09-09T07:47:47.868Z,21.30
2018-09-09T07:50:17.072Z,21.50
2018-09-09T07:52:46.352Z,20.90
2018-09-09T07:55:15.481Z,20.60
2018-09-09T07:57:44.682Z,20.20
2018-09-09T08:00:13.920Z,19.70
2018-09-09T08:02:43.083Z,19.20
2018-09-09T08:05:12.307Z,19.00
2018-09-09T08:07:41.519Z,18.90
2018-09-09T08:10:10.710Z,19.10
2018-09-09T08:12:39.965Z,19.80
2018-09-09T08:15:09.237Z,20.80
2018-09-09T08:17:38.520Z,21.80
2018-09-09T08:20:07.720Z,22.60
2018-09-09T08:22:36.869Z,23.10
2018-09-09T08:25:06.410Z,23.60
2018-09-09T08:27:36.333Z,23.80
2018-09-09T08:30:06.036Z,24.50
2018-09-09T08:32:35.200Z,25.10
2018-09-09T08:35:05.111Z,25.50
2018-09-09T08:37:34.403Z,25.00
2018-09-09T08:40:04.364Z,24.90
2018-09-09T08:42:34.039Z,24.70
2018-09-09T08:45:04.088Z,24.30
2018-09-09T08:47:33.408Z,24.50
2018-09-09T08:50:03.216Z,24.40
2018-09-09T08:52:32.473Z,24.00
2018-09-09T08:55:01.656Z,23.80
2018-09-09T08:57:30.859Z,23.50
2018-09-09T09:00:00.152Z,23.20
2018-09-09T09:02:29.384Z,23.10
2018-09-09T09:04:58.671Z,23.00
2018-09-09T09:07:28.050Z,22.70
2018-09-09T09:09:57.392Z,22.60
2018-09-09T09:12:26.588Z,22.70
2018-09-09T09:14:56.776Z,23.20
2018-09-09T09:17:25.892Z,24.00
2018-09-09T09:19:55.107Z,24.90
2018-09-09T09:22:24.396Z,25.50
2018-09-09T09:24:53.712Z,25.60
2018-09-09T09:27:22.959Z,25.90
2018-09-09T09:29:59.171Z,26.50
2018-09-09T09:32:28.463Z,26.90
2018-09-09T09:34:57.814Z,27.20
2018-09-09T09:37:28.075Z,27.50
2018-09-09T09:39:57.449Z,27.40
2018-09-09T09:42:26.671Z,27.60
2018-09-09T09:44:55.928Z,27.30
2018-09-09T09:47:25.076Z,27.30
2018-09-09T09:49:54.492Z,27.30
2018-09-09T09:52:24.593Z,27.20
2018-09-09T09:54:53.717Z,26.40
2018-09-09T09:57:22.964Z,25.80
2018-09-09T09:59:52.149Z,25.00
2018-09-09T10:02:21.317Z,24.70
2018-09-09T10:04:50.685Z,24.80
2018-09-09T10:07:19.926Z,24.30
2018-09-09T10:09:49.092Z,24.80
2018-09-09T10:12:18.276Z,25.50
2018-09-09T10:14:47.513Z,25.50
2018-09-09T10:17:16.765Z,24.90
2018-09-09T10:19:46.022Z,24.60
2018-09-09T10:22:15.196Z,24.40
2018-09-09T10:24:44.408Z,24.70
2018-09-09T10:27:13.566Z,24.60
2018-09-09T10:29:42.697Z,24.20
2018-09-09T10:32:11.892Z,24.80
2018-09-09T10:34:41.061Z,25.40
2018-09-09T10:37:10.247Z,25.50
2018-09-09T10:39:39.405Z,25.50
2018-09-09T10:42:08.652Z,25.60
2018-09-09T10:44:37.863Z,25.90
2018-09-09T10:47:07.314Z,25.90
2018-09-09T10:49:36.998Z,25.80
2018-09-09T10:52:06.256Z,25.70
2018-09-09T10:54:36.542Z,25.20
2018-09-09T10:57:05.704Z,24.60
2018-09-09T10:59:34.919Z,24.20
2018-09-09T11:02:04.019Z,23.90
2018-09-09T11:04:33.224Z,23.50
2018-09-09T11:07:02.707Z,22.90
2018-09-09T11:09:32.153Z,22.50
2018-09-09T11:12:01.543Z,22.20
2018-09-09T11:14:37.751Z,22.20
2018-09-09T11:17:07.915Z,22.20
2018-09-09T11:19:37.098Z,22.40
2018-09-09T11:22:06.387Z,22.50
2018-09-09T11:24:36.346Z,22.60
2018-09-09T11:27:30.901Z,22.80
2018-09-09T11:30:01.404Z,22.60
2018-09-09T11:32:30.753Z,23.00
2018-09-09T11:34:59.942Z,23.60
2018-09-09T11:37:29.281Z,24.50
2018-09-09T11:39:58.681Z,25.60
2018-09-09T11:42:27.956Z,26.40
2018-09-09T11:44:57.237Z,26.70
2018-09-09T11:47:26.468Z,26.90
2018-09-09T11:49:55.741Z,26.80
2018-09-09T11:52:25.097Z,26.90
2018-09-09T11:54:54.421Z,27.20
2018-09-09T11:57:23.861Z,27.60
2018-09-09T11:59:53.065Z,27.30
2018-09-09T12:02:22.259Z,26.70
2018-09-09T12:04:52.424Z,26.00
2018-09-09T12:07:21.724Z,25.40
2018-09-09T12:09:50.941Z,25.50
2018-09-09T12:12:20.280Z,25.60
2018-09-09T12:14:49.611Z,25.70
2018-09-09T12:17:19.680Z,25.80
2018-09-09T12:19:49.228Z,25.70
2018-09-09T12:22:18.405Z,25.60
2018-09-09T12:24:47.794Z,25.80
2018-09-09T12:27:17.042Z,26.60
2018-09-09T12:29:46.164Z,26.50
2018-09-09T12:32:15.452Z,26.50
2018-09-09T12:34:44.520Z,26.60
2018-09-09T12:37:14.128Z,26.80
2018-09-09T12:39:43.392Z,26.30
2018-09-09T12:42:12.644Z,26.30
2018-09-09T12:44:47.233Z,26.30
2018-09-09T12:47:21.812Z,26.20
2018-09-09T12:49:50.971Z,26.10
2018-09-09T12:52:20.218Z,25.90
2018-09-09T12:54:49.352Z,26.60
2018-09-09T12:57:18.656Z,27.60
2018-09-09T12:59:47.913Z,28.20
2018-09-09T13:02:17.157Z,28.40
2018-09-09T13:04:46.327Z,28.50
2018-09-09T13:07:15.574Z,28.30
2018-09-09T13:09:44.870Z,28.20
2018-09-09T13:12:14.072Z,27.70
2018-09-09T13:14:43.281Z,27.50
2018-09-09T13:17:12.481Z,27.20
2018-09-09T13:19:41.732Z,27.00
2018-09-09T13:22:10.856Z,27.80
2018-09-09T13:24:40.794Z,27.90
2018-09-09T13:27:09.979Z,27.50
2018-09-09T13:29:39.167Z,27.30
2018-09-09T13:32:08.464Z,27.20
2018-09-09T13:34:37.612Z,26.80
2018-09-09T13:37:07.040Z,27.00
2018-09-09T13:39:36.461Z,26.70
2018-09-09T13:42:05.590Z,27.10
2018-09-09T13:44:34.839Z,27.60
2018-09-09T13:47:04.201Z,27.20
2018-09-09T13:49:33.381Z,26.60
2018-09-09T13:52:02.581Z,25.70
2018-09-09T13:54:32.068Z,25.10
2018-09-09T13:57:01.586Z,24.60
2018-09-09T13:59:30.985Z,25.50
2018-09-09T14:02:00.401Z,27.10
2018-09-09T14:04:29.584Z,28.40
2018-09-09T14:06:58.817Z,29.40
2018-09-09T14:09:28.179Z,29.90
2018-09-09T14:11:57.373Z,30.20
2018-09-09T14:14:26.603Z,29.90
2018-09-09T14:16:55.824Z,29.10
2018-09-09T14:19:25.022Z,29.20
2018-09-09T14:21:54.356Z,28.70
2018-09-09T14:24:23.595Z,27.70
2018-09-09T14:26:52.779Z,26.50
2018-09-09T14:29:22.126Z,25.10
2018-09-09T14:31:52.241Z,24.60
2018-09-09T14:34:21.586Z,24.30
2018-09-09T14:36:51.025Z,24.20
2018-09-09T14:39:20.337Z,23.70
2018-09-09T14:41:49.633Z,23.40
2018-09-09T14:44:18.837Z,23.20
2018-09-09T14:46:48.026Z,23.10
2018-09-09T14:49:17.244Z,23.10
2018-09-09T14:51:46.428Z,23.30
2018-09-09T14:54:15.824Z,23.50
2018-09-09T14:56:45.011Z,23.80
2018-09-09T14:59:14.109Z,24.20
2018-09-09T15:01:43.263Z,24.10
2018-09-09T15:04:12.479Z,24.00
2018-09-09T15:06:41.829Z,23.90
2018-09-09T15:09:12.053Z,23.80
2018-09-09T15:11:41.562Z,23.80
2018-09-09T15:14:10.772Z,23.90
2018-09-09T15:16:40.041Z,24.20
2018-09-09T15:19:09.128Z,24.00
2018-09-09T15:21:38.561Z,24.20
2018-09-09T15:24:07.736Z,24.10
2018-09-09T15:26:37.061Z,24.20
2018-09-09T15:29:06.422Z,24.00
2018-09-09T15:31:35.631Z,24.40
2018-09-09T15:34:04.961Z,24.30
2018-09-09T15:36:34.356Z,24.00
2018-09-09T15:39:04.473Z,24.20
2018-09-09T15:41:33.600Z,24.50
2018-09-09T15:44:03.313Z,24.30
2018-09-09T15:46:33.404Z,24.10
2018-09-09T15:49:02.580Z,23.70
2018-09-09T15:51:31.796Z,23.60
2018-09-09T15:54:00.896Z,24.00
2018-09-09T15:56:30.032Z,24.20
2018-09-09T15:58:59.120Z,24.20
2018-09-09T16:01:28.376Z,24.00
2018-09-09T16:03:57.585Z,23.80
2018-09-09T16:06:26.760Z,23.40
2018-09-09T16:08:55.854Z,23.10
2018-09-09T16:11:25.184Z,22.90
2018-09-09T16:13:54.336Z,22.80
2018-09-09T16:16:23.603Z,22.70
2018-09-09T16:18:52.901Z,22.60
2018-09-09T16:21:21.991Z,22.30
2018-09-09T16:23:51.227Z,22.10
2018-09-09T16:26:20.475Z,21.90
2018-09-09T16:28:49.676Z,21.70
2018-09-09T16:31:19.094Z,21.70
2018-09-09T16:33:48.257Z,21.50
2018-09-09T16:36:17.435Z,21.50
2018-09-09T16:38:46.800Z,21.40
2018-09-09T16:41:15.957Z,21.40
2018-09-09T16:43:45.084Z,21.30
2018-09-09T16:46:14.295Z,21.40
2018-09-09T16:48:43.451Z,21.40
2018-09-09T16:51:12.893Z,21.40
2018-09-09T16:53:41.977Z,21.40
2018-09-09T16:56:11.154Z,21.40
2018-09-09T16:58:40.356Z,21.50
2018-09-09T17:01:10.311Z,21.50
2018-09-09T17:03:39.492Z,21.60
2018-09-09T17:06:08.738Z,21.60
2018-09-09T17:08:37.939Z,21.60
2018-09-09T17:11:07.148Z,21.50
2018-09-09T17:13:36.321Z,21.40
2018-09-09T17:16:05.788Z,21.30
2018-09-09T17:18:34.977Z,21.20
2018-09-09T17:21:04.089Z,21.10
2018-09-09T17:23:33.196Z,21.00
2018-09-09T17:26:02.496Z,20.80
2018-09-09T17:28:31.624Z,20.60
2018-09-09T17:31:00.871Z,20.50
2018-09-09T17:33:29.964Z,20.30
2018-09-09T17:35:59.056Z,20.20
2018-09-09T17:38:28.238Z,20.00
2018-09-09T17:41:03.924Z,19.90
2018-09-09T17:43:33.107Z,19.70
2018-09-09T17:46:03.417Z,19.60
2018-09-09T17:48:32.524Z,19.40
2018-09-09T17:51:02.427Z,19.30
2018-09-09T17:53:31.647Z,19.30
2018-09-09T17:56:01.493Z,19.20
2018-09-09T17:58:30.592Z,19.20
2018-09-09T18:01:00.616Z,19.10
2018-09-09T18:03:29.968Z,19.10
2018-09-09T18:05:59.173Z,19.00
2018-09-09T18:08:28.356Z,19.00
2018-09-09T18:10:57.626Z,19.00
2018-09-09T18:13:26.929Z,18.90
2018-09-09T18:15:56.135Z,18.90
2018-09-09T18:18:25.343Z,18.80
2018-09-09T18:20:55.454Z,18.80
2018-09-09T18:23:25.305Z,18.80
2018-09-09T18:25:55.185Z,18.70
2018-09-09T18:28:24.647Z,18.70
2018-09-09T18:30:53.950Z,18.70
2018-09-09T18:33:23.186Z,18.50
2018-09-09T18:35:53.045Z,18.50
2018-09-09T18:38:22.470Z,18.40
2018-09-09T18:40:51.679Z,18.40
2018-09-09T18:43:20.832Z,18.40
2018-09-09T18:45:50.216Z,18.40
2018-09-09T18:48:19.463Z,18.40
2018-09-09T18:50:48.758Z,18.30
2018-09-09T18:53:17.929Z,18.20
2018-09-09T18:55:47.313Z,18.20
2018-09-09T18:58:16.766Z,18.10
2018-09-09T19:00:46.256Z,18.10
2018-09-09T19:03:15.474Z,18.00
2018-09-09T19:05:44.723Z,17.90
2018-09-09T19:08:14.004Z,17.90
2018-09-09T19:10:43.377Z,17.90
2018-09-09T19:13:15.007Z,17.90
2018-09-09T19:15:44.179Z,17.80
2018-09-09T19:18:13.320Z,17.70
2018-09-09T19:20:42.594Z,17.70
2018-09-09T19:23:11.753Z,17.70
2018-09-09T19:25:41.343Z,17.70
2018-09-09T19:28:10.621Z,17.70
2018-09-09T19:30:39.788Z,17.70
2018-09-09T19:33:09.157Z,17.70
2018-09-09T19:35:38.368Z,17.60
2018-09-09T19:38:07.751Z,17.70
2018-09-09T19:40:37.445Z,17.70
2018-09-09T19:43:07.261Z,17.70
2018-09-09T19:45:36.484Z,17.60
2018-09-09T19:48:05.659Z,17.60
2018-09-09T19:50:35.544Z,17.60
2018-09-09T19:53:04.981Z,17.60
2018-09-09T19:55:34.364Z,17.60
2018-09-09T19:58:03.512Z,17.60
2018-09-09T20:00:32.876Z,17.50
2018-09-09T20:03:01.978Z,17.50
2018-09-09T20:05:31.244Z,17.50
2018-09-09T20:08:01.324Z,17.40
2018-09-09T20:10:30.783Z,17.50
2018-09-09T20:12:59.989Z,17.40
2018-09-09T20:15:29.289Z,17.40
2018-09-09T20:17:58.428Z,17.30
2018-09-09T20:20:27.674Z,17.30
2018-09-09T20:22:56.892Z,17.30
2018-09-09T20:25:26.048Z,17.40
2018-09-09T20:27:55.280Z,17.30
2018-09-09T20:30:24.437Z,17.30
2018-09-09T20:32:53.692Z,17.30
2018-09-09T20:35:22.921Z,17.30
2018-09-09T20:37:52.047Z,17.30
2018-09-09T20:40:21.337Z,17.30
2018-09-09T20:42:50.608Z,17.30
2018-09-09T20:45:19.743Z,17.20
2018-09-09T20:47:48.970Z,17.20
2018-09-09T20:50:18.200Z,17.20
2018-09-09T20:52:47.456Z,17.20
2018-09-09T20:55:16.620Z,17.20
2018-09-09T20:57:45.820Z,17.20
2018-09-09T21:00:15.298Z,17.10
2018-09-09T21:02:44.330Z,17.10
2018-09-09T21:05:13.557Z,17.10
2018-09-09T21:07:42.820Z,17.10
2018-09-09T21:10:12.047Z,17.10
2018-09-09T21:12:41.221Z,17.00
2018-09-09T21:15:10.548Z,16.90
2018-09-09T21:17:39.697Z,16.90
2018-09-09T21:20:08.953Z,16.90
2018-09-09T21:22:38.161Z,16.90
2018-09-09T21:25:07.348Z,16.90
2018-09-09T21:27:36.736Z,16.90
2018-09-09T21:30:06.255Z,16.90
2018-09-09T21:32:35.466Z,17.00
2018-09-09T21:35:04.615Z,17.00
2018-09-09T21:37:33.849Z,17.00
2018-09-09T21:40:02.983Z,17.00
2018-09-09T21:42:32.199Z,17.00
2018-09-09T21:45:01.444Z,17.00
2018-09-09T21:47:30.636Z,16.80
2018-09-09T21:49:59.955Z,16.70
2018-09-09T21:52:29.148Z,16.70
2018-09-09T21:54:58.448Z,16.60
2018-09-09T21:57:27.644Z,16.60
2018-09-09T21:59:56.841Z,16.50
2018-09-09T22:02:26.042Z,16.40
2018-09-09T22:04:56.587Z,16.40
2018-09-09T22:07:26.130Z,16.30
2018-09-09T22:09:55.374Z,16.40
2018-09-09T22:12:24.553Z,16.30
2018-09-09T22:14:53.759Z,16.20
2018-09-09T22:17:22.968Z,16.10
2018-09-09T22:19:52.317Z,16.00
2018-09-09T22:22:21.500Z,15.90
2018-09-09T22:24:50.612Z,15.90
2018-09-09T22:27:19.956Z,15.80
2018-09-09T22:29:49.189Z,15.70
2018-09-09T22:32:18.369Z,15.60
2018-09-09T22:34:47.551Z,15.50
2018-09-09T22:37:16.945Z,15.50
2018-09-09T22:39:46.175Z,15.40
2018-09-09T22:42:15.426Z,15.40
2018-09-09T22:44:44.649Z,15.40
2018-09-09T22:47:14.099Z,15.30
2018-09-09T22:49:43.936Z,15.30
2018-09-09T22:52:13.268Z,15.30
2018-09-09T22:54:42.532Z,15.30
2018-09-09T22:57:12.417Z,15.30
2018-09-09T22:59:41.692Z,15.30
2018-09-09T23:02:10.912Z,15.20
2018-09-09T23:04:40.190Z,15.30
2018-09-09T23:07:09.416Z,15.20
2018-09-09T23:09:38.623Z,15.20
2018-09-09T23:12:07.795Z,15.20
2018-09-09T23:14:37.145Z,15.20
2018-09-09T23:17:06.226Z,15.30
2018-09-09T23:19:35.388Z,15.20
2018-09-09T23:22:05.696Z,15.20
2018-09-09T23:24:34.969Z,15.30
2018-09-09T23:27:04.176Z,15.40
2018-09-09T23:29:33.346Z,15.60
2018-09-09T23:32:03.615Z,15.60
2018-09-09T23:34:32.745Z,15.60
2018-09-09T23:37:01.996Z,15.60
2018-09-09T23:39:31.219Z,15.70
2018-09-09T23:42:00.420Z,15.80
2018-09-09T23:44:29.624Z,15.80
2018-09-09T23:46:58.925Z,15.90
2018-09-09T23:49:28.096Z,15.80
2018-09-09T23:51:57.387Z,15.80
2018-09-09T23:54:26.742Z,15.80
2018-09-09T23:56:55.919Z,15.80
2018-09-09T23:59:25.151Z,15.80
